sensor_id;sensor_type;location;lat;lon;timestamp;temperature;humidity
16064;DHT22;8136;53.172;8.256;2023-07-28T00:00:47;18.20;99.90
16064;DHT22;8136;53.172;8.256;2023-07-28T00:03:13;18.20;99.90
16064;DHT22;8136;53.172;8.256;2023-07-28T00:05:40;18.20;99.90
16064;DHT22;8136;53.172;8.256;2023-07-28T00:08:07;18.20;99.90
16064;DHT22;8136;53.172;8.256;2023-07-28T00:10:40;18.20;99.90
16064;DHT22;8136;53.172;8.256;2023-07-28T00:13:07;18.20;99.90
16064;DHT22;8136;53.172;8.256;2023-07-28T00:15:35;18.20;99.90
16064;DHT22;8136;53.172;8.256;2023-07-28T00:18:02;18.20;99.90
16064;DHT22;8136;53.172;8.256;2023-07-28T00:20:29;18.20;99.90
16064;DHT22;8136;53.172;8.256;2023-07-28T00:22:56;18.20;99.90
16064;DHT22;8136;53.172;8.256;2023-07-28T00:25:22;18.20;99.90
16064;DHT22;8136;53.172;8.256;2023-07-28T00:27:49;18.10;99.90
16064;DHT22;8136;53.172;8.256;2023-07-28T00:30:16;18.20;99.90
16064;DHT22;8136;53.172;8.256;2023-07-28T00:32:44;18.10;99.90
16064;DHT22;8136;53.172;8.256;2023-07-28T00:35:11;18.10;99.90
16064;DHT22;8136;53.172;8.256;2023-07-28T00:37:38;18.20;99.90
16064;DHT22;8136;53.172;8.256;2023-07-28T00:40:05;18.10;99.90
16064;DHT22;8136;53.172;8.256;2023-07-28T00:42:32;18.10;99.90
16064;DHT22;8136;53.172;8.256;2023-07-28T00:44:59;18.10;99.90
16064;DHT22;8136;53.172;8.256;2023-07-28T00:47:26;18.10;99.90
16064;DHT22;8136;53.172;8.256;2023-07-28T00:49:54;18.10;99.90
16064;DHT22;8136;53.172;8.256;2023-07-28T00:52:21;18.10;99.90
16064;DHT22;8136;53.172;8.256;2023-07-28T00:54:48;18.10;99.90
16064;DHT22;8136;53.172;8.256;2023-07-28T00:57:15;18.10;99.90
16064;DHT22;8136;53.172;8.256;2023-07-28T00:59:44;18.20;99.90
16064;DHT22;8136;53.172;8.256;2023-07-28T01:02:11;18.20;99.90
16064;DHT22;8136;53.172;8.256;2023-07-28T01:04:39;18.10;99.90
16064;DHT22;8136;53.172;8.256;2023-07-28T01:07:10;18.20;99.90
16064;DHT22;8136;53.172;8.256;2023-07-28T01:09:52;18.20;99.90
16064;DHT22;8136;53.172;8.256;2023-07-28T01:12:24;18.20;99.90
16064;DHT22;8136;53.172;8.256;2023-07-28T01:14:50;18.10;99.90
16064;DHT22;8136;53.172;8.256;2023-07-28T01:17:18;18.20;99.90
16064;DHT22;8136;53.172;8.256;2023-07-28T01:19:45;18.10;99.90
16064;DHT22;8136;53.172;8.256;2023-07-28T01:22:41;18.10;99.90
16064;DHT22;8136;53.172;8.256;2023-07-28T01:25:18;18.20;99.90
16064;DHT22;8136;53.172;8.256;2023-07-28T01:27:47;18.10;99.90
16064;DHT22;8136;53.172;8.256;2023-07-28T01:30:14;18.20;99.90
16064;DHT22;8136;53.172;8.256;2023-07-28T01:32:41;18.10;99.90
16064;DHT22;8136;53.172;8.256;2023-07-28T01:35:09;18.10;99.90
16064;DHT22;8136;53.172;8.256;2023-07-28T01:37:36;18.10;99.90
16064;DHT22;8136;53.172;8.256;2023-07-28T01:40:04;18.10;99.90
16064;DHT22;8136;53.172;8.256;2023-07-28T01:42:31;18.20;99.90
16064;DHT22;8136;53.172;8.256;2023-07-28T01:44:59;18.20;99.90
16064;DHT22;8136;53.172;8.256;2023-07-28T01:47:25;18.20;99.90
16064;DHT22;8136;53.172;8.256;2023-07-28T01:49:52;18.20;99.90
16064;DHT22;8136;53.172;8.256;2023-07-28T01:52:19;18.20;99.90
16064;DHT22;8136;53.172;8.256;2023-07-28T01:54:47;18.20;99.90
16064;DHT22;8136;53.172;8.256;2023-07-28T01:57:13;18.20;99.90
16064;DHT22;8136;53.172;8.256;2023-07-28T01:59:40;18.20;99.90
16064;DHT22;8136;53.172;8.256;2023-07-28T02:02:08;18.20;99.90
16064;DHT22;8136;53.172;8.256;2023-07-28T02:04:35;18.20;99.90
16064;DHT22;8136;53.172;8.256;2023-07-28T02:07:02;18.20;99.90
16064;DHT22;8136;53.172;8.256;2023-07-28T02:09:29;18.20;99.90
16064;DHT22;8136;53.172;8.256;2023-07-28T02:11:55;18.20;99.90
16064;DHT22;8136;53.172;8.256;2023-07-28T02:14:22;18.20;99.90
16064;DHT22;8136;53.172;8.256;2023-07-28T02:16:49;18.20;99.90
16064;DHT22;8136;53.172;8.256;2023-07-28T02:19:17;18.20;99.90
16064;DHT22;8136;53.172;8.256;2023-07-28T02:21:44;18.10;99.90
16064;DHT22;8136;53.172;8.256;2023-07-28T02:24:11;18.10;99.90
16064;DHT22;8136;53.172;8.256;2023-07-28T02:26:37;18.10;99.90
16064;DHT22;8136;53.172;8.256;2023-07-28T02:29:04;18.10;99.90
16064;DHT22;8136;53.172;8.256;2023-07-28T02:31:31;18.10;99.90
16064;DHT22;8136;53.172;8.256;2023-07-28T02:33:58;18.10;99.90
16064;DHT22;8136;53.172;8.256;2023-07-28T02:36:26;18.10;99.90
16064;DHT22;8136;53.172;8.256;2023-07-28T02:38:52;18.10;99.90
16064;DHT22;8136;53.172;8.256;2023-07-28T02:41:19;18.10;99.90
16064;DHT22;8136;53.172;8.256;2023-07-28T02:43:46;18.10;99.90
16064;DHT22;8136;53.172;8.256;2023-07-28T02:46:13;18.10;99.90
16064;DHT22;8136;53.172;8.256;2023-07-28T02:48:40;18.10;99.90
16064;DHT22;8136;53.172;8.256;2023-07-28T02:51:07;18.10;99.90
16064;DHT22;8136;53.172;8.256;2023-07-28T02:53:35;18.10;99.90
16064;DHT22;8136;53.172;8.256;2023-07-28T02:56:02;18.10;99.90
16064;DHT22;8136;53.172;8.256;2023-07-28T02:58:28;18.10;99.90
16064;DHT22;8136;53.172;8.256;2023-07-28T03:00:55;18.10;99.90
16064;DHT22;8136;53.172;8.256;2023-07-28T03:03:22;18.20;99.90
16064;DHT22;8136;53.172;8.256;2023-07-28T03:05:51;18.20;99.90
16064;DHT22;8136;53.172;8.256;2023-07-28T03:08:19;18.20;99.90
16064;DHT22;8136;53.172;8.256;2023-07-28T03:10:47;18.20;99.90
16064;DHT22;8136;53.172;8.256;2023-07-28T03:13:14;18.20;99.90
16064;DHT22;8136;53.172;8.256;2023-07-28T03:15:41;18.20;99.90
16064;DHT22;8136;53.172;8.256;2023-07-28T03:18:07;18.30;99.90
16064;DHT22;8136;53.172;8.256;2023-07-28T03:20:34;18.30;99.90
16064;DHT22;8136;53.172;8.256;2023-07-28T03:23:01;18.30;99.90
16064;DHT22;8136;53.172;8.256;2023-07-28T03:25:28;18.30;99.90
16064;DHT22;8136;53.172;8.256;2023-07-28T03:27:56;18.30;99.90
16064;DHT22;8136;53.172;8.256;2023-07-28T03:30:22;18.30;99.90
16064;DHT22;8136;53.172;8.256;2023-07-28T03:32:49;18.30;99.90
16064;DHT22;8136;53.172;8.256;2023-07-28T03:35:16;18.40;99.90
16064;DHT22;8136;53.172;8.256;2023-07-28T03:37:43;18.40;99.90
16064;DHT22;8136;53.172;8.256;2023-07-28T03:40:10;18.40;99.90
16064;DHT22;8136;53.172;8.256;2023-07-28T03:42:37;18.40;99.90
16064;DHT22;8136;53.172;8.256;2023-07-28T03:45:06;18.40;99.90
16064;DHT22;8136;53.172;8.256;2023-07-28T03:47:33;18.40;99.90
16064;DHT22;8136;53.172;8.256;2023-07-28T03:50:00;18.40;99.90
16064;DHT22;8136;53.172;8.256;2023-07-28T03:52:27;18.40;99.90
16064;DHT22;8136;53.172;8.256;2023-07-28T03:54:54;18.40;99.90
16064;DHT22;8136;53.172;8.256;2023-07-28T03:57:20;18.40;99.90
16064;DHT22;8136;53.172;8.256;2023-07-28T03:59:47;18.40;99.90
16064;DHT22;8136;53.172;8.256;2023-07-28T04:02:15;18.40;99.90
16064;DHT22;8136;53.172;8.256;2023-07-28T04:04:41;18.40;99.90
16064;DHT22;8136;53.172;8.256;2023-07-28T04:07:08;18.40;99.90
16064;DHT22;8136;53.172;8.256;2023-07-28T04:09:34;18.40;99.90
16064;DHT22;8136;53.172;8.256;2023-07-28T04:12:01;18.30;99.90
16064;DHT22;8136;53.172;8.256;2023-07-28T04:14:28;18.40;99.90
16064;DHT22;8136;53.172;8.256;2023-07-28T04:16:55;18.40;99.90
16064;DHT22;8136;53.172;8.256;2023-07-28T04:19:23;18.40;99.90
16064;DHT22;8136;53.172;8.256;2023-07-28T04:21:49;18.40;99.90
16064;DHT22;8136;53.172;8.256;2023-07-28T04:24:17;18.50;99.90
16064;DHT22;8136;53.172;8.256;2023-07-28T04:26:44;18.40;99.90
16064;DHT22;8136;53.172;8.256;2023-07-28T04:29:14;18.50;99.90
16064;DHT22;8136;53.172;8.256;2023-07-28T04:31:41;18.50;99.90
16064;DHT22;8136;53.172;8.256;2023-07-28T04:34:07;18.50;99.90
16064;DHT22;8136;53.172;8.256;2023-07-28T04:36:36;18.50;99.90
16064;DHT22;8136;53.172;8.256;2023-07-28T04:39:02;18.40;99.90
16064;DHT22;8136;53.172;8.256;2023-07-28T04:41:29;18.50;99.90
16064;DHT22;8136;53.172;8.256;2023-07-28T04:43:56;18.40;99.90
16064;DHT22;8136;53.172;8.256;2023-07-28T04:46:23;18.40;99.90
16064;DHT22;8136;53.172;8.256;2023-07-28T04:48:49;18.40;99.90
16064;DHT22;8136;53.172;8.256;2023-07-28T04:51:16;18.40;99.90
16064;DHT22;8136;53.172;8.256;2023-07-28T04:53:44;18.40;99.90
16064;DHT22;8136;53.172;8.256;2023-07-28T04:56:11;18.50;99.90
16064;DHT22;8136;53.172;8.256;2023-07-28T04:58:38;18.40;99.90
16064;DHT22;8136;53.172;8.256;2023-07-28T05:01:04;18.50;99.90
16064;DHT22;8136;53.172;8.256;2023-07-28T05:03:34;18.50;99.90
16064;DHT22;8136;53.172;8.256;2023-07-28T05:06:03;18.40;99.90
16064;DHT22;8136;53.172;8.256;2023-07-28T05:08:30;18.40;99.90
16064;DHT22;8136;53.172;8.256;2023-07-28T05:10:58;18.50;99.90
16064;DHT22;8136;53.172;8.256;2023-07-28T05:13:25;18.40;99.90
16064;DHT22;8136;53.172;8.256;2023-07-28T05:15:51;18.50;99.90
16064;DHT22;8136;53.172;8.256;2023-07-28T05:18:18;18.50;99.90
16064;DHT22;8136;53.172;8.256;2023-07-28T05:20:45;18.50;99.90
16064;DHT22;8136;53.172;8.256;2023-07-28T05:23:12;18.50;99.90
16064;DHT22;8136;53.172;8.256;2023-07-28T05:25:38;18.50;99.90
16064;DHT22;8136;53.172;8.256;2023-07-28T05:28:07;18.60;99.90
16064;DHT22;8136;53.172;8.256;2023-07-28T05:30:33;18.60;99.90
16064;DHT22;8136;53.172;8.256;2023-07-28T05:33:00;18.50;99.90
16064;DHT22;8136;53.172;8.256;2023-07-28T05:35:27;18.60;99.90
16064;DHT22;8136;53.172;8.256;2023-07-28T05:37:54;18.60;99.90
16064;DHT22;8136;53.172;8.256;2023-07-28T05:40:21;18.60;99.90
16064;DHT22;8136;53.172;8.256;2023-07-28T05:42:47;18.60;99.90
16064;DHT22;8136;53.172;8.256;2023-07-28T05:45:16;18.60;99.90
16064;DHT22;8136;53.172;8.256;2023-07-28T05:47:43;18.70;99.90
16064;DHT22;8136;53.172;8.256;2023-07-28T05:50:10;18.70;99.90
16064;DHT22;8136;53.172;8.256;2023-07-28T05:52:36;18.70;99.90
16064;DHT22;8136;53.172;8.256;2023-07-28T05:55:04;18.70;99.90
16064;DHT22;8136;53.172;8.256;2023-07-28T05:57:31;18.70;99.90
16064;DHT22;8136;53.172;8.256;2023-07-28T05:59:58;18.70;99.90
16064;DHT22;8136;53.172;8.256;2023-07-28T06:02:26;18.80;99.90
16064;DHT22;8136;53.172;8.256;2023-07-28T06:04:53;18.80;99.90
16064;DHT22;8136;53.172;8.256;2023-07-28T06:07:20;18.80;99.90
16064;DHT22;8136;53.172;8.256;2023-07-28T06:09:46;18.80;99.90
16064;DHT22;8136;53.172;8.256;2023-07-28T06:12:13;18.70;99.90
16064;DHT22;8136;53.172;8.256;2023-07-28T06:14:41;18.70;99.90
16064;DHT22;8136;53.172;8.256;2023-07-28T06:17:08;18.70;99.90
16064;DHT22;8136;53.172;8.256;2023-07-28T06:19:36;18.70;99.90
16064;DHT22;8136;53.172;8.256;2023-07-28T06:22:03;18.70;99.90
16064;DHT22;8136;53.172;8.256;2023-07-28T06:24:30;18.70;99.90
16064;DHT22;8136;53.172;8.256;2023-07-28T06:26:57;18.80;99.90
16064;DHT22;8136;53.172;8.256;2023-07-28T06:29:24;18.80;99.90
16064;DHT22;8136;53.172;8.256;2023-07-28T06:31:51;18.80;99.90
16064;DHT22;8136;53.172;8.256;2023-07-28T06:34:18;18.80;99.90
16064;DHT22;8136;53.172;8.256;2023-07-28T06:36:46;18.90;99.90
16064;DHT22;8136;53.172;8.256;2023-07-28T06:39:13;18.80;99.90
16064;DHT22;8136;53.172;8.256;2023-07-28T06:41:40;18.80;99.90
16064;DHT22;8136;53.172;8.256;2023-07-28T06:44:07;18.80;99.90
16064;DHT22;8136;53.172;8.256;2023-07-28T06:46:34;18.80;99.90
16064;DHT22;8136;53.172;8.256;2023-07-28T06:49:01;18.80;99.90
16064;DHT22;8136;53.172;8.256;2023-07-28T06:51:28;18.80;99.90
16064;DHT22;8136;53.172;8.256;2023-07-28T06:53:56;18.80;99.90
16064;DHT22;8136;53.172;8.256;2023-07-28T06:56:23;18.90;99.90
16064;DHT22;8136;53.172;8.256;2023-07-28T06:58:50;18.80;99.90
16064;DHT22;8136;53.172;8.256;2023-07-28T07:01:16;18.80;99.90
16064;DHT22;8136;53.172;8.256;2023-07-28T07:03:43;18.90;99.90
16064;DHT22;8136;53.172;8.256;2023-07-28T07:06:10;18.90;99.90
16064;DHT22;8136;53.172;8.256;2023-07-28T07:08:37;18.90;99.90
16064;DHT22;8136;53.172;8.256;2023-07-28T07:11:05;18.90;99.90
16064;DHT22;8136;53.172;8.256;2023-07-28T07:13:32;18.90;99.90
16064;DHT22;8136;53.172;8.256;2023-07-28T07:15:59;18.90;99.90
16064;DHT22;8136;53.172;8.256;2023-07-28T07:18:26;18.90;99.90
16064;DHT22;8136;53.172;8.256;2023-07-28T07:20:53;18.90;99.90
16064;DHT22;8136;53.172;8.256;2023-07-28T07:23:20;18.90;99.90
16064;DHT22;8136;53.172;8.256;2023-07-28T07:25:49;19.00;99.90
16064;DHT22;8136;53.172;8.256;2023-07-28T07:28:20;19.00;99.90
16064;DHT22;8136;53.172;8.256;2023-07-28T07:30:48;19.10;99.90
16064;DHT22;8136;53.172;8.256;2023-07-28T07:33:14;19.10;99.90
16064;DHT22;8136;53.172;8.256;2023-07-28T07:35:41;19.20;99.90
16064;DHT22;8136;53.172;8.256;2023-07-28T07:38:08;19.20;99.90
16064;DHT22;8136;53.172;8.256;2023-07-28T07:40:35;19.20;99.90
16064;DHT22;8136;53.172;8.256;2023-07-28T07:43:03;19.30;99.90
16064;DHT22;8136;53.172;8.256;2023-07-28T07:45:31;19.30;99.90
16064;DHT22;8136;53.172;8.256;2023-07-28T07:47:58;19.40;99.90
16064;DHT22;8136;53.172;8.256;2023-07-28T07:50:25;19.40;99.90
16064;DHT22;8136;53.172;8.256;2023-07-28T07:52:52;19.50;99.90
16064;DHT22;8136;53.172;8.256;2023-07-28T07:55:19;19.50;99.90
16064;DHT22;8136;53.172;8.256;2023-07-28T07:57:46;19.50;99.90
16064;DHT22;8136;53.172;8.256;2023-07-28T08:00:14;19.50;99.90
16064;DHT22;8136;53.172;8.256;2023-07-28T08:02:42;19.40;99.90
16064;DHT22;8136;53.172;8.256;2023-07-28T08:05:09;19.40;99.90
16064;DHT22;8136;53.172;8.256;2023-07-28T08:07:36;19.40;99.90
16064;DHT22;8136;53.172;8.256;2023-07-28T08:10:03;19.50;99.90
16064;DHT22;8136;53.172;8.256;2023-07-28T08:12:30;19.50;99.90
16064;DHT22;8136;53.172;8.256;2023-07-28T08:14:57;19.50;99.90
16064;DHT22;8136;53.172;8.256;2023-07-28T08:17:24;19.60;99.90
16064;DHT22;8136;53.172;8.256;2023-07-28T08:19:52;19.80;99.90
16064;DHT22;8136;53.172;8.256;2023-07-28T08:22:19;19.90;99.90
16064;DHT22;8136;53.172;8.256;2023-07-28T08:24:46;20.10;99.90
16064;DHT22;8136;53.172;8.256;2023-07-28T08:27:13;20.00;99.90
16064;DHT22;8136;53.172;8.256;2023-07-28T08:29:39;20.00;99.90
16064;DHT22;8136;53.172;8.256;2023-07-28T08:32:07;19.90;99.90
16064;DHT22;8136;53.172;8.256;2023-07-28T08:34:34;19.90;99.90
16064;DHT22;8136;53.172;8.256;2023-07-28T08:37:02;19.80;99.90
16064;DHT22;8136;53.172;8.256;2023-07-28T08:39:29;19.80;99.90
16064;DHT22;8136;53.172;8.256;2023-07-28T08:42:00;19.80;99.90
16064;DHT22;8136;53.172;8.256;2023-07-28T08:44:29;19.80;99.90
16064;DHT22;8136;53.172;8.256;2023-07-28T08:46:56;19.80;99.90
16064;DHT22;8136;53.172;8.256;2023-07-28T08:49:24;19.90;99.90
16064;DHT22;8136;53.172;8.256;2023-07-28T08:51:52;20.00;99.90
16064;DHT22;8136;53.172;8.256;2023-07-28T08:54:20;20.30;99.90
16064;DHT22;8136;53.172;8.256;2023-07-28T08:56:48;20.40;99.90
16064;DHT22;8136;53.172;8.256;2023-07-28T08:59:21;20.60;99.90
16064;DHT22;8136;53.172;8.256;2023-07-28T09:01:49;20.70;99.90
16064;DHT22;8136;53.172;8.256;2023-07-28T09:04:16;20.80;99.90
16064;DHT22;8136;53.172;8.256;2023-07-28T09:06:45;20.80;99.90
16064;DHT22;8136;53.172;8.256;2023-07-28T09:09:13;20.70;99.90
16064;DHT22;8136;53.172;8.256;2023-07-28T09:11:45;20.60;99.90
16064;DHT22;8136;53.172;8.256;2023-07-28T09:14:12;20.60;99.90
16064;DHT22;8136;53.172;8.256;2023-07-28T09:16:39;20.60;99.90
16064;DHT22;8136;53.172;8.256;2023-07-28T09:19:07;20.70;99.90
16064;DHT22;8136;53.172;8.256;2023-07-28T09:21:35;20.90;99.90
16064;DHT22;8136;53.172;8.256;2023-07-28T09:24:03;21.20;99.90
16064;DHT22;8136;53.172;8.256;2023-07-28T09:26:37;21.40;99.90
16064;DHT22;8136;53.172;8.256;2023-07-28T09:29:13;21.50;99.90
16064;DHT22;8136;53.172;8.256;2023-07-28T09:31:40;21.40;99.90
16064;DHT22;8136;53.172;8.256;2023-07-28T09:34:07;21.40;99.90
16064;DHT22;8136;53.172;8.256;2023-07-28T09:36:35;21.20;99.90
16064;DHT22;8136;53.172;8.256;2023-07-28T09:39:04;21.10;99.90
16064;DHT22;8136;53.172;8.256;2023-07-28T09:41:34;21.00;99.90
16064;DHT22;8136;53.172;8.256;2023-07-28T09:44:02;20.90;99.90
16064;DHT22;8136;53.172;8.256;2023-07-28T09:46:32;20.80;99.90
16064;DHT22;8136;53.172;8.256;2023-07-28T09:49:00;20.80;99.90
16064;DHT22;8136;53.172;8.256;2023-07-28T09:51:31;20.80;99.90
16064;DHT22;8136;53.172;8.256;2023-07-28T09:54:02;20.80;99.90
16064;DHT22;8136;53.172;8.256;2023-07-28T09:56:30;20.90;99.90
16064;DHT22;8136;53.172;8.256;2023-07-28T09:58:58;20.90;99.90
16064;DHT22;8136;53.172;8.256;2023-07-28T10:01:25;20.80;99.90
16064;DHT22;8136;53.172;8.256;2023-07-28T10:03:54;20.80;99.90
16064;DHT22;8136;53.172;8.256;2023-07-28T10:06:21;20.70;99.90
16064;DHT22;8136;53.172;8.256;2023-07-28T10:08:49;20.70;99.90
16064;DHT22;8136;53.172;8.256;2023-07-28T10:11:17;20.70;99.90
16064;DHT22;8136;53.172;8.256;2023-07-28T10:13:45;20.70;99.90
16064;DHT22;8136;53.172;8.256;2023-07-28T10:16:12;20.70;99.90
16064;DHT22;8136;53.172;8.256;2023-07-28T10:18:40;20.80;99.90
16064;DHT22;8136;53.172;8.256;2023-07-28T10:21:10;21.00;99.90
16064;DHT22;8136;53.172;8.256;2023-07-28T10:23:39;21.10;99.90
16064;DHT22;8136;53.172;8.256;2023-07-28T10:26:06;21.30;99.90
16064;DHT22;8136;53.172;8.256;2023-07-28T10:28:35;21.50;99.90
16064;DHT22;8136;53.172;8.256;2023-07-28T10:31:06;21.70;99.90
16064;DHT22;8136;53.172;8.256;2023-07-28T10:33:34;21.80;99.90
16064;DHT22;8136;53.172;8.256;2023-07-28T10:36:13;21.90;99.90
16064;DHT22;8136;53.172;8.256;2023-07-28T10:38:41;21.90;99.90
16064;DHT22;8136;53.172;8.256;2023-07-28T10:41:18;21.90;99.90
16064;DHT22;8136;53.172;8.256;2023-07-28T10:43:45;21.90;99.90
16064;DHT22;8136;53.172;8.256;2023-07-28T10:46:16;21.80;99.90
16064;DHT22;8136;53.172;8.256;2023-07-28T10:48:44;21.90;99.90
16064;DHT22;8136;53.172;8.256;2023-07-28T10:51:20;22.10;99.90
16064;DHT22;8136;53.172;8.256;2023-07-28T10:53:50;22.30;99.90
16064;DHT22;8136;53.172;8.256;2023-07-28T10:56:17;22.50;99.90
16064;DHT22;8136;53.172;8.256;2023-07-28T10:58:44;22.70;99.90
16064;DHT22;8136;53.172;8.256;2023-07-28T11:01:11;22.70;99.90
16064;DHT22;8136;53.172;8.256;2023-07-28T11:03:40;22.70;99.90
16064;DHT22;8136;53.172;8.256;2023-07-28T11:06:06;22.60;99.90
16064;DHT22;8136;53.172;8.256;2023-07-28T11:08:35;22.60;99.90
16064;DHT22;8136;53.172;8.256;2023-07-28T11:11:04;22.50;99.90
16064;DHT22;8136;53.172;8.256;2023-07-28T11:13:32;22.40;99.90
16064;DHT22;8136;53.172;8.256;2023-07-28T11:16:00;22.40;99.90
16064;DHT22;8136;53.172;8.256;2023-07-28T11:18:27;22.30;99.90
16064;DHT22;8136;53.172;8.256;2023-07-28T11:20:54;22.20;99.90
16064;DHT22;8136;53.172;8.256;2023-07-28T11:23:20;22.20;99.90
16064;DHT22;8136;53.172;8.256;2023-07-28T11:25:49;22.10;99.90
16064;DHT22;8136;53.172;8.256;2023-07-28T11:28:16;22.00;99.90
16064;DHT22;8136;53.172;8.256;2023-07-28T11:30:46;21.90;99.90
16064;DHT22;8136;53.172;8.256;2023-07-28T11:33:13;21.80;99.90
16064;DHT22;8136;53.172;8.256;2023-07-28T11:35:40;21.80;99.90
16064;DHT22;8136;53.172;8.256;2023-07-28T11:38:10;21.90;99.90
16064;DHT22;8136;53.172;8.256;2023-07-28T11:40:38;22.10;99.90
16064;DHT22;8136;53.172;8.256;2023-07-28T11:43:06;22.30;99.90
16064;DHT22;8136;53.172;8.256;2023-07-28T11:45:33;22.50;99.90
16064;DHT22;8136;53.172;8.256;2023-07-28T11:48:03;22.60;99.90
16064;DHT22;8136;53.172;8.256;2023-07-28T11:50:35;22.70;99.90
16064;DHT22;8136;53.172;8.256;2023-07-28T11:53:02;23.00;99.90
16064;DHT22;8136;53.172;8.256;2023-07-28T11:55:29;23.10;99.90
16064;DHT22;8136;53.172;8.256;2023-07-28T11:57:56;23.20;99.90
16064;DHT22;8136;53.172;8.256;2023-07-28T12:00:29;23.20;99.90
16064;DHT22;8136;53.172;8.256;2023-07-28T12:03:04;23.30;99.90
16064;DHT22;8136;53.172;8.256;2023-07-28T12:05:32;23.60;99.90
16064;DHT22;8136;53.172;8.256;2023-07-28T12:08:00;23.80;99.90
16064;DHT22;8136;53.172;8.256;2023-07-28T12:10:29;23.90;99.90
16064;DHT22;8136;53.172;8.256;2023-07-28T12:12:57;24.00;99.90
16064;DHT22;8136;53.172;8.256;2023-07-28T12:15:26;24.10;99.90
16064;DHT22;8136;53.172;8.256;2023-07-28T12:18:05;24.20;99.90
16064;DHT22;8136;53.172;8.256;2023-07-28T12:20:34;24.30;99.90
16064;DHT22;8136;53.172;8.256;2023-07-28T12:23:04;24.40;99.90
16064;DHT22;8136;53.172;8.256;2023-07-28T12:25:31;24.50;99.90
16064;DHT22;8136;53.172;8.256;2023-07-28T12:28:01;24.60;99.90
16064;DHT22;8136;53.172;8.256;2023-07-28T12:30:32;24.50;99.90
16064;DHT22;8136;53.172;8.256;2023-07-28T12:32:59;24.10;99.90
16064;DHT22;8136;53.172;8.256;2023-07-28T12:35:27;23.90;99.90
16064;DHT22;8136;53.172;8.256;2023-07-28T12:37:57;23.70;99.90
16064;DHT22;8136;53.172;8.256;2023-07-28T12:40:25;23.70;99.90
16064;DHT22;8136;53.172;8.256;2023-07-28T12:43:00;23.80;99.90
16064;DHT22;8136;53.172;8.256;2023-07-28T12:45:27;23.90;99.90
16064;DHT22;8136;53.172;8.256;2023-07-28T12:47:56;23.80;99.90
16064;DHT22;8136;53.172;8.256;2023-07-28T12:50:24;23.80;99.90
16064;DHT22;8136;53.172;8.256;2023-07-28T12:52:51;23.80;99.90
16064;DHT22;8136;53.172;8.256;2023-07-28T12:55:18;23.70;99.90
16064;DHT22;8136;53.172;8.256;2023-07-28T12:57:45;24.00;99.90
16064;DHT22;8136;53.172;8.256;2023-07-28T13:00:14;24.20;99.90
16064;DHT22;8136;53.172;8.256;2023-07-28T13:02:42;24.50;99.90
16064;DHT22;8136;53.172;8.256;2023-07-28T13:05:13;24.60;99.90
16064;DHT22;8136;53.172;8.256;2023-07-28T13:07:41;24.70;99.90
16064;DHT22;8136;53.172;8.256;2023-07-28T13:10:09;24.80;99.90
16064;DHT22;8136;53.172;8.256;2023-07-28T13:12:37;25.10;99.90
16064;DHT22;8136;53.172;8.256;2023-07-28T13:15:04;25.20;99.90
16064;DHT22;8136;53.172;8.256;2023-07-28T13:17:31;25.20;99.90
16064;DHT22;8136;53.172;8.256;2023-07-28T13:19:58;25.20;99.90
16064;DHT22;8136;53.172;8.256;2023-07-28T13:22:27;25.20;99.90
16064;DHT22;8136;53.172;8.256;2023-07-28T13:24:54;25.40;99.90
16064;DHT22;8136;53.172;8.256;2023-07-28T13:27:20;25.50;99.90
16064;DHT22;8136;53.172;8.256;2023-07-28T13:29:47;25.50;99.90
16064;DHT22;8136;53.172;8.256;2023-07-28T13:32:18;25.40;99.90
16064;DHT22;8136;53.172;8.256;2023-07-28T13:34:50;25.30;99.90
16064;DHT22;8136;53.172;8.256;2023-07-28T13:37:17;25.30;99.90
16064;DHT22;8136;53.172;8.256;2023-07-28T13:39:46;25.50;99.90
16064;DHT22;8136;53.172;8.256;2023-07-28T13:42:13;25.60;99.90
16064;DHT22;8136;53.172;8.256;2023-07-28T13:44:42;25.90;99.90
16064;DHT22;8136;53.172;8.256;2023-07-28T13:47:41;26.00;99.90
16064;DHT22;8136;53.172;8.256;2023-07-28T13:50:09;26.20;99.90
16064;DHT22;8136;53.172;8.256;2023-07-28T13:52:35;26.40;99.90
16064;DHT22;8136;53.172;8.256;2023-07-28T13:55:04;26.50;99.90
16064;DHT22;8136;53.172;8.256;2023-07-28T20:46:39;20.60;99.90
16064;DHT22;8136;53.172;8.256;2023-07-28T20:49:06;20.50;99.90
16064;DHT22;8136;53.172;8.256;2023-07-28T20:51:33;20.40;99.90
16064;DHT22;8136;53.172;8.256;2023-07-28T20:54:00;20.40;99.90
16064;DHT22;8136;53.172;8.256;2023-07-28T20:56:27;20.30;99.90
16064;DHT22;8136;53.172;8.256;2023-07-28T20:58:53;20.20;99.90
16064;DHT22;8136;53.172;8.256;2023-07-28T21:01:20;20.20;99.90
16064;DHT22;8136;53.172;8.256;2023-07-28T21:03:49;20.10;99.90
16064;DHT22;8136;53.172;8.256;2023-07-28T21:06:16;20.10;99.90
16064;DHT22;8136;53.172;8.256;2023-07-28T21:08:42;20.10;99.90
16064;DHT22;8136;53.172;8.256;2023-07-28T21:11:09;20.10;99.90
16064;DHT22;8136;53.172;8.256;2023-07-28T21:13:36;20.10;99.90
16064;DHT22;8136;53.172;8.256;2023-07-28T21:16:03;20.10;99.90
16064;DHT22;8136;53.172;8.256;2023-07-28T21:18:30;20.10;99.90
16064;DHT22;8136;53.172;8.256;2023-07-28T21:20:58;20.00;99.90
16064;DHT22;8136;53.172;8.256;2023-07-28T21:23:25;19.90;99.90
16064;DHT22;8136;53.172;8.256;2023-07-28T21:25:54;20.00;99.90
16064;DHT22;8136;53.172;8.256;2023-07-28T21:28:21;20.00;99.90
16064;DHT22;8136;53.172;8.256;2023-07-28T21:30:48;20.00;99.90
16064;DHT22;8136;53.172;8.256;2023-07-28T21:33:15;20.00;99.90
16064;DHT22;8136;53.172;8.256;2023-07-28T21:35:41;20.00;99.90
16064;DHT22;8136;53.172;8.256;2023-07-28T21:38:09;19.90;99.90
16064;DHT22;8136;53.172;8.256;2023-07-28T21:40:36;19.90;99.90
16064;DHT22;8136;53.172;8.256;2023-07-28T21:43:05;19.90;99.90
16064;DHT22;8136;53.172;8.256;2023-07-28T21:45:31;19.90;99.90
16064;DHT22;8136;53.172;8.256;2023-07-28T21:47:58;19.90;99.90
16064;DHT22;8136;53.172;8.256;2023-07-28T21:50:25;19.90;99.90
16064;DHT22;8136;53.172;8.256;2023-07-28T21:52:52;19.90;99.90
16064;DHT22;8136;53.172;8.256;2023-07-28T21:55:20;19.80;99.90
16064;DHT22;8136;53.172;8.256;2023-07-28T21:57:47;19.80;99.90
16064;DHT22;8136;53.172;8.256;2023-07-28T22:00:14;19.80;99.90
16064;DHT22;8136;53.172;8.256;2023-07-28T22:02:41;19.80;99.90
16064;DHT22;8136;53.172;8.256;2023-07-28T22:05:08;19.80;99.90
16064;DHT22;8136;53.172;8.256;2023-07-28T22:07:35;19.80;99.90
16064;DHT22;8136;53.172;8.256;2023-07-28T22:10:06;19.80;99.90
16064;DHT22;8136;53.172;8.256;2023-07-28T22:12:35;19.80;99.90
16064;DHT22;8136;53.172;8.256;2023-07-28T22:15:02;19.90;99.90
16064;DHT22;8136;53.172;8.256;2023-07-28T22:17:29;19.90;99.90
16064;DHT22;8136;53.172;8.256;2023-07-28T22:19:57;19.80;99.90
16064;DHT22;8136;53.172;8.256;2023-07-28T22:22:26;19.80;99.90
16064;DHT22;8136;53.172;8.256;2023-07-28T22:24:53;19.80;99.90
16064;DHT22;8136;53.172;8.256;2023-07-28T22:27:19;19.80;99.90
16064;DHT22;8136;53.172;8.256;2023-07-28T22:29:48;19.80;99.90
16064;DHT22;8136;53.172;8.256;2023-07-28T22:32:17;19.70;99.90
16064;DHT22;8136;53.172;8.256;2023-07-28T22:34:44;19.70;99.90
16064;DHT22;8136;53.172;8.256;2023-07-28T22:37:11;19.70;99.90